Time;durP1;ratioP1;P1;durP2;ratioP2;P2;SDS_P1;SDS_P2;PMS_P1;PMS_P2;Temp;Humidity;BMP_temperature;BMP_pressure;BME280_temperature;BME280_humidity;BME280_pressure;Samples;Min_cycle;Max_cycle;Signal;HPM_P1;HPM_P2
2022/07/01 00:00:47;;;;;;;8.55;3.05;;;14.20;99.90;;;;;;5043477;28;20036;-67
2022/07/01 00:03:13;;;;;;;9.43;2.50;;;14.20;99.90;;;;;;5043469;28;20020;-67
2022/07/01 00:05:39;;;;;;;4.50;2.40;;;14.20;99.90;;;;;;5043494;28;20308;-65
2022/07/01 00:08:05;;;;;;;3.97;2.50;;;14.20;99.90;;;;;;5043607;28;20301;-66
2022/07/01 00:10:31;;;;;;;7.35;2.55;;;14.20;99.90;;;;;;5073441;28;20155;-68
2022/07/01 00:12:57;;;;;;;9.13;2.90;;;14.30;99.90;;;;;;5043148;28;20036;-67
2022/07/01 00:15:23;;;;;;;4.97;1.92;;;14.30;99.90;;;;;;5043202;28;20081;-68
2022/07/01 00:17:49;;;;;;;6.88;2.47;;;14.30;99.90;;;;;;5043350;28;20135;-66
2022/07/01 00:20:15;;;;;;;4.90;2.20;;;14.30;99.90;;;;;;5043134;28;20093;-66
2022/07/01 00:22:41;;;;;;;6.25;2.45;;;14.20;99.90;;;;;;5042347;28;20304;-65
2022/07/01 00:25:07;;;;;;;7.43;2.33;;;14.20;99.90;;;;;;5041458;28;20437;-67
2022/07/01 00:27:36;;;;;;;7.00;2.42;;;14.20;99.90;;;;;;5074926;28;20041;-66
2022/07/01 00:30:02;;;;;;;6.43;2.30;;;14.20;99.90;;;;;;5043092;28;20033;-66
2022/07/01 00:32:27;;;;;;;4.68;1.90;;;14.10;99.90;;;;;;5074887;28;20029;-66
2022/07/01 00:34:53;;;;;;;4.50;2.17;;;14.20;99.90;;;;;;5042527;28;20041;-67
2022/07/01 00:37:19;;;;;;;6.13;2.05;;;14.10;99.90;;;;;;5042862;28;20029;-66
2022/07/01 00:39:44;;;;;;;10.57;2.60;;;14.10;99.90;;;;;;5042812;28;20040;-66
2022/07/01 00:42:10;;;;;;;5.95;2.53;;;14.00;99.90;;;;;;5042751;28;20108;-67
2022/07/01 00:44:36;;;;;;;7.22;2.28;;;14.00;99.90;;;;;;5042491;28;20084;-66
2022/07/01 00:47:07;;;;;;;4.22;1.95;;;13.90;99.90;;;;;;5074442;28;20036;-66
2022/07/01 00:49:32;;;;;;;6.87;2.37;;;13.90;99.90;;;;;;5042621;28;20025;-67
2022/07/01 00:51:59;;;;;;;7.57;2.25;;;13.80;99.90;;;;;;5042293;28;20115;-67
2022/07/01 00:54:26;;;;;;;7.70;2.80;;;13.70;99.90;;;;;;5042285;28;20087;-67
2022/07/01 00:56:51;;;;;;;7.55;2.40;;;13.70;99.90;;;;;;5042716;28;20048;-68
2022/07/01 00:59:17;;;;;;;6.57;2.20;;;13.70;99.90;;;;;;5042455;28;20087;-66
2022/07/01 01:01:43;;;;;;;5.20;2.40;;;13.70;99.90;;;;;;5042353;28;20025;-67
2022/07/01 01:04:09;;;;;;;4.25;2.03;;;13.60;99.90;;;;;;5042255;28;20021;-66
2022/07/01 01:06:36;;;;;;;7.72;2.50;;;13.50;99.90;;;;;;5042247;28;20224;-67
2022/07/01 01:09:02;;;;;;;6.05;2.58;;;13.40;99.90;;;;;;5042422;28;20067;-65
2022/07/01 01:11:30;;;;;;;6.95;2.92;;;13.40;99.90;;;;;;5056129;28;20033;-66
2022/07/01 01:13:55;;;;;;;5.78;2.55;;;13.40;99.90;;;;;;5073924;28;20041;-66
2022/07/01 01:16:23;;;;;;;7.20;3.22;;;13.50;99.90;;;;;;5057648;28;20040;-66
2022/07/01 01:18:49;;;;;;;5.50;2.50;;;13.60;99.90;;;;;;5042198;28;20025;-66
2022/07/01 01:21:15;;;;;;;5.95;2.95;;;13.80;99.90;;;;;;5057583;28;20045;-66
2022/07/01 01:23:42;;;;;;;7.80;3.03;;;13.80;99.90;;;;;;5041422;28;20306;-67
2022/07/01 01:26:16;;;;;;;4.47;2.83;;;13.80;99.90;;;;;;5042040;28;20043;-66
2022/07/01 01:28:42;;;;;;;7.85;3.00;;;13.80;99.90;;;;;;5042114;28;20021;-65
2022/07/01 01:31:07;;;;;;;8.00;2.70;;;13.80;99.90;;;;;;5041672;28;20340;-66
2022/07/01 01:33:33;;;;;;;13.23;2.80;;;13.80;99.90;;;;;;5042094;28;20040;-67
2022/07/01 01:35:58;;;;;;;8.80;2.88;;;13.90;99.90;;;;;;5040252;28;20029;-66
2022/07/01 01:38:24;;;;;;;7.35;2.47;;;13.90;99.90;;;;;;5043662;28;20063;-66
2022/07/01 01:40:50;;;;;;;5.75;2.70;;;13.90;99.90;;;;;;5028300;28;20025;-65
2022/07/01 01:43:16;;;;;;;6.65;2.72;;;13.90;99.90;;;;;;5044968;28;20048;-66
2022/07/01 01:45:41;;;;;;;7.50;2.80;;;13.90;99.90;;;;;;5044579;28;20209;-66
2022/07/01 01:48:07;;;;;;;6.40;2.75;;;13.90;99.90;;;;;;5046066;28;20093;-67
2022/07/01 01:50:33;;;;;;;8.23;2.95;;;13.90;99.90;;;;;;5044427;28;20061;-66
2022/07/01 01:52:58;;;;;;;7.50;3.05;;;13.90;99.90;;;;;;5044502;28;20025;-66
2022/07/01 01:55:24;;;;;;;8.38;3.00;;;13.90;99.90;;;;;;5045725;28;20048;-66
2022/07/01 01:57:50;;;;;;;12.38;3.03;;;13.80;99.90;;;;;;5045934;28;20040;-66
2022/07/01 02:00:15;;;;;;;11.73;3.05;;;13.90;99.90;;;;;;5045853;28;20045;-67
2022/07/01 02:02:41;;;;;;;10.10;2.90;;;13.90;99.90;;;;;;5044337;28;20041;-66
2022/07/01 02:05:10;;;;;;;8.23;2.63;;;13.90;99.90;;;;;;5044606;28;20021;-66
2022/07/01 02:07:36;;;;;;;11.93;3.55;;;13.90;99.90;;;;;;5044521;28;20116;-66
2022/07/01 02:10:02;;;;;;;7.43;2.80;;;13.90;99.90;;;;;;5045613;28;20308;-67
2022/07/01 02:12:28;;;;;;;4.97;2.63;;;13.90;99.90;;;;;;5043861;28;20162;-67
2022/07/01 02:14:54;;;;;;;6.40;2.60;;;13.90;99.90;;;;;;5045253;28;20052;-65
2022/07/01 02:17:19;;;;;;;6.93;2.80;;;13.90;99.90;;;;;;5045415;28;20021;-65
2022/07/01 02:19:45;;;;;;;5.70;2.20;;;13.90;99.90;;;;;;5045530;28;20057;-67
2022/07/01 02:22:11;;;;;;;4.78;2.30;;;13.90;99.90;;;;;;5045078;28;20025;-67
2022/07/01 02:24:37;;;;;;;5.57;2.45;;;13.90;99.90;;;;;;5045101;28;20043;-66
2022/07/01 02:27:03;;;;;;;9.27;2.90;;;13.90;99.90;;;;;;5044140;28;20277;-66
2022/07/01 02:29:28;;;;;;;8.18;2.80;;;13.80;99.90;;;;;;5045274;28;20075;-67
2022/07/01 02:31:54;;;;;;;7.47;2.90;;;13.80;99.90;;;;;;5045125;28;20029;-67
2022/07/01 02:34:20;;;;;;;5.72;2.60;;;13.70;99.90;;;;;;5045020;28;20048;-67
2022/07/01 02:36:46;;;;;;;8.05;2.63;;;13.60;99.90;;;;;;5044623;28;20041;-68
2022/07/01 02:39:11;;;;;;;7.55;2.90;;;13.50;99.90;;;;;;5043786;28;20252;-66
2022/07/01 02:42:22;;;;;;;10.95;2.63;;;13.40;99.90;;;;;;5077229;28;20017;-67
2022/07/01 02:44:22;;;;;;;9.75;2.47;;;13.30;99.90;;;;;;5057837;28;20017;-67
2022/07/01 02:46:48;;;;;;;9.18;2.75;;;13.30;99.90;;;;;;5045014;28;20123;-66
2022/07/01 02:49:15;;;;;;;6.40;2.20;;;13.20;99.90;;;;;;5044666;28;20128;-66
2022/07/01 02:51:40;;;;;;;8.57;2.42;;;13.10;99.90;;;;;;5076528;28;20050;-66
2022/07/01 02:54:06;;;;;;;9.35;3.03;;;13.10;99.90;;;;;;5042854;28;20244;-66
2022/07/01 02:56:31;;;;;;;6.07;2.80;;;13.00;99.90;;;;;;5044698;28;20032;-66
2022/07/01 02:58:57;;;;;;;9.13;4.88;;;13.00;99.90;;;;;;5044798;28;20025;-66
2022/07/01 03:01:23;;;;;;;4.57;2.47;;;13.00;99.90;;;;;;5044747;28;20131;-66
2022/07/01 03:03:50;;;;;;;6.43;2.78;;;12.90;99.90;;;;;;5044628;28;20338;-67
2022/07/01 03:06:15;;;;;;;6.45;2.40;;;12.90;99.90;;;;;;5044321;28;20089;-65
2022/07/01 03:08:41;;;;;;;5.07;3.17;;;12.80;99.90;;;;;;5044429;28;20024;-67
2022/07/01 03:11:07;;;;;;;9.18;2.92;;;12.80;99.90;;;;;;5076476;28;20114;-65
2022/07/01 03:13:32;;;;;;;5.38;2.78;;;12.80;99.90;;;;;;5042889;28;20068;-66
2022/07/01 03:15:58;;;;;;;9.75;3.03;;;12.80;99.90;;;;;;5044078;28;20032;-66
2022/07/01 03:18:24;;;;;;;8.05;3.42;;;12.80;99.90;;;;;;5044445;28;20124;-66
2022/07/01 03:20:51;;;;;;;7.15;3.03;;;12.70;99.90;;;;;;5044294;28;20018;-68
2022/07/01 03:23:17;;;;;;;7.03;2.92;;;12.70;99.90;;;;;;5044096;28;20056;-67
2022/07/01 03:25:42;;;;;;;7.50;2.80;;;12.70;99.90;;;;;;5044074;28;20017;-67
2022/07/01 03:28:08;;;;;;;9.43;3.22;;;12.70;99.90;;;;;;5076310;28;20028;-67
2022/07/01 03:30:34;;;;;;;8.88;3.15;;;12.70;99.90;;;;;;5044273;28;20080;-66
2022/07/01 03:33:00;;;;;;;7.75;3.20;;;12.70;99.90;;;;;;5042791;28;20071;-67
2022/07/01 03:35:45;;;;;;;8.27;4.07;;;12.70;99.90;;;;;;5043938;28;20082;-66
2022/07/01 03:38:11;;;;;;;6.70;3.85;;;12.70;99.90;;;;;;5043971;28;20021;-67
2022/07/01 03:40:37;;;;;;;13.05;3.88;;;12.60;99.90;;;;;;5043989;28;20079;-65
2022/07/01 03:43:03;;;;;;;7.88;3.67;;;12.60;99.90;;;;;;5043868;28;20017;-67
2022/07/01 03:45:29;;;;;;;8.48;3.60;;;12.60;99.90;;;;;;5043920;28;20206;-66
2022/07/01 03:47:55;;;;;;;7.28;3.75;;;12.60;99.90;;;;;;5043651;28;20032;-66
2022/07/01 03:50:22;;;;;;;9.80;4.13;;;12.60;99.90;;;;;;5043437;28;20029;-66
2022/07/01 03:52:48;;;;;;;11.32;4.72;;;12.60;99.90;;;;;;5043373;28;20018;-66
2022/07/01 03:55:14;;;;;;;7.78;4.35;;;12.50;99.90;;;;;;5043600;28;20080;-65
2022/07/01 03:57:40;;;;;;;12.93;4.90;;;12.50;99.90;;;;;;5042417;28;20033;-66
2022/07/01 04:00:07;;;;;;;10.55;5.30;;;12.50;99.90;;;;;;5042899;28;20064;-66
2022/07/01 04:02:33;;;;;;;10.93;5.28;;;12.50;99.90;;;;;;5043452;28;20109;-67
2022/07/01 04:04:59;;;;;;;17.17;5.28;;;12.40;99.90;;;;;;5043372;28;20044;-67
2022/07/01 04:07:25;;;;;;;12.90;5.10;;;12.40;99.90;;;;;;5042044;28;20029;-66
2022/07/01 04:09:52;;;;;;;12.90;6.00;;;12.30;99.90;;;;;;5043524;28;20017;-66
2022/07/01 04:12:18;;;;;;;11.40;5.60;;;12.20;99.90;;;;;;5040746;28;20061;-67
2022/07/01 04:14:44;;;;;;;12.18;5.32;;;12.20;99.90;;;;;;5043162;28;20037;-66
2022/07/01 04:17:10;;;;;;;11.80;5.78;;;12.20;99.90;;;;;;5043189;28;20071;-66
2022/07/01 04:19:36;;;;;;;10.38;5.85;;;12.10;99.90;;;;;;5043256;28;20021;-67
2022/07/01 04:24:48;;;;;;;12.07;5.90;;;12.20;99.90;;;;;;5041921;28;20296;-68
2022/07/01 04:27:14;;;;;;;34.90;7.45;;;12.20;99.90;;;;;;5042865;28;20036;-67
2022/07/01 04:29:39;;;;;;;27.40;6.32;;;12.20;99.90;;;;;;5041923;28;20021;-66
2022/07/01 04:32:05;;;;;;;27.55;7.35;;;12.30;99.90;;;;;;5042715;28;20063;-66
2022/07/01 04:34:31;;;;;;;34.88;7.35;;;12.30;99.90;;;;;;5042668;28;20029;-66
2022/07/01 04:36:57;;;;;;;20.23;6.47;;;12.30;99.90;;;;;;5074777;28;20071;-66
2022/07/01 04:39:22;;;;;;;20.08;6.65;;;12.50;99.90;;;;;;5075103;28;20099;-67
2022/07/01 04:42:03;;;;;;;14.07;5.10;;;12.70;99.90;;;;;;5042930;28;20032;-67
2022/07/01 04:44:31;;;;;;;13.13;7.10;;;13.00;99.90;;;;;;5041406;28;20353;-66
2022/07/01 04:46:58;;;;;;;14.30;7.25;;;13.30;99.90;;;;;;5042473;28;20264;-66
2022/07/01 04:49:23;;;;;;;12.23;5.35;;;13.50;99.90;;;;;;5057972;28;20159;-67
2022/07/01 04:51:49;;;;;;;10.13;5.35;;;13.70;99.90;;;;;;5042225;28;20120;-66
2022/07/01 04:54:15;;;;;;;12.18;3.80;;;14.00;99.90;;;;;;5074105;28;20383;-66
2022/07/01 04:56:41;;;;;;;7.53;3.95;;;14.30;99.90;;;;;;5042560;28;20021;-66
2022/07/01 04:59:07;;;;;;;10.57;3.35;;;14.50;99.90;;;;;;5074636;28;20104;-67
2022/07/01 05:01:34;;;;;;;8.32;2.90;;;14.70;99.90;;;;;;5057657;28;20096;-66
2022/07/01 05:04:00;;;;;;;9.57;2.80;;;14.90;99.90;;;;;;5040985;28;20036;-66
2022/07/01 05:06:26;;;;;;;5.63;2.50;;;15.10;99.90;;;;;;5041015;28;20028;-67
2022/07/01 05:08:52;;;;;;;9.60;2.80;;;15.40;99.90;;;;;;5042282;28;20044;-68
2022/07/01 05:11:18;;;;;;;3.03;1.98;;;15.70;99.90;;;;;;5042350;28;20025;-67
2022/07/01 05:13:44;;;;;;;9.02;2.58;;;15.80;99.90;;;;;;5072922;28;20063;-66
2022/07/01 05:16:10;;;;;;;8.57;1.77;;;15.90;99.90;;;;;;5041057;28;20025;-66
2022/07/01 05:24:09;;;;;;;4.28;1.70;;;15.60;99.90;;;;;;5040755;28;20092;-66
2022/07/01 05:26:35;;;;;;;6.35;1.40;;;15.40;99.90;;;;;;5042044;28;20036;-66
2022/07/01 05:29:00;;;;;;;5.60;1.98;;;15.30;99.90;;;;;;5074346;28;20033;-67
2022/07/01 05:31:26;;;;;;;6.65;1.77;;;15.10;99.90;;;;;;5041943;28;20188;-68
2022/07/01 05:33:52;;;;;;;7.18;1.95;;;15.10;99.90;;;;;;5042309;28;20047;-67
2022/07/01 05:36:18;;;;;;;7.00;2.15;;;15.10;99.90;;;;;;5041889;28;20053;-68
2022/07/01 05:38:43;;;;;;;6.28;1.70;;;15.00;99.90;;;;;;5041710;28;20029;-67
2022/07/01 05:41:09;;;;;;;8.75;1.98;;;14.90;99.90;;;;;;5040999;28;20037;-66
2022/07/01 05:43:35;;;;;;;9.68;2.03;;;15.00;99.90;;;;;;5041854;28;20025;-67
2022/07/01 05:46:01;;;;;;;4.95;2.17;;;15.00;99.90;;;;;;5041510;28;20208;-65
2022/07/01 05:48:27;;;;;;;6.28;1.42;;;15.00;99.90;;;;;;5040560;28;20045;-67
2022/07/01 05:50:53;;;;;;;7.32;1.50;;;15.00;99.90;;;;;;5040502;28;20054;-67
2022/07/01 05:53:19;;;;;;;6.00;1.45;;;15.00;99.90;;;;;;5041406;28;20048;-65
2022/07/01 05:55:45;;;;;;;5.70;1.70;;;15.10;99.90;;;;;;5040582;28;20096;-66
2022/07/01 05:58:12;;;;;;;9.43;2.22;;;15.20;99.90;;;;;;5040498;28;20018;-66
2022/07/01 06:00:41;;;;;;;6.20;2.05;;;15.40;99.90;;;;;;5040509;28;20102;-66
2022/07/01 06:03:09;;;;;;;7.72;2.20;;;15.50;99.90;;;;;;5041521;28;20019;-67
2022/07/01 06:05:35;;;;;;;6.78;1.70;;;15.60;99.90;;;;;;5041328;28;20044;-66
2022/07/01 06:08:00;;;;;;;3.25;1.40;;;15.70;99.90;;;;;;5041886;28;20041;-68
2022/07/01 06:10:26;;;;;;;4.57;1.50;;;15.80;99.90;;;;;;5039945;28;20021;-66
2022/07/01 06:12:52;;;;;;;4.75;1.17;;;15.80;99.90;;;;;;5040415;28;20022;-66
2022/07/01 06:15:17;;;;;;;8.18;1.50;;;15.70;99.90;;;;;;5039904;28;20025;-65
2022/07/01 06:17:43;;;;;;;2.92;1.27;;;15.50;99.90;;;;;;5041793;28;20070;-66
2022/07/01 06:20:09;;;;;;;3.75;1.20;;;15.50;99.90;;;;;;5040113;28;20197;-67
2022/07/01 06:22:35;;;;;;;7.32;1.23;;;15.40;99.90;;;;;;5041391;28;20311;-65
2022/07/01 06:25:02;;;;;;;6.60;1.30;;;15.30;99.90;;;;;;5050163;28;20036;-66
2022/07/01 06:27:28;;;;;;;1.17;0.90;;;15.10;99.90;;;;;;5080714;28;20066;-66
2022/07/01 06:29:54;;;;;;;8.38;1.67;;;15.10;99.90;;;;;;5064139;28;20021;-64
2022/07/01 06:32:19;;;;;;;5.63;1.17;;;15.10;99.90;;;;;;5048900;28;20029;-67
2022/07/01 06:34:45;;;;;;;3.92;1.15;;;15.10;99.90;;;;;;5044825;28;20108;-66
2022/07/01 06:37:11;;;;;;;1.98;1.15;;;15.10;99.90;;;;;;5044872;28;20028;-66
2022/07/01 06:39:37;;;;;;;5.05;1.60;;;15.20;99.90;;;;;;5045041;28;20031;-65
2022/07/01 06:42:03;;;;;;;4.63;1.40;;;15.20;99.90;;;;;;5044909;28;20025;-67
2022/07/01 06:44:29;;;;;;;5.15;1.42;;;15.30;99.90;;;;;;5044875;28;20196;-69
2022/07/01 06:46:54;;;;;;;4.53;1.40;;;15.40;99.90;;;;;;5044695;28;20049;-65
2022/07/01 06:49:20;;;;;;;4.65;1.48;;;15.50;99.90;;;;;;5043630;28;20022;-66
2022/07/01 06:51:46;;;;;;;10.30;1.88;;;15.50;99.90;;;;;;5042882;28;20057;-68
2022/07/01 06:54:11;;;;;;;3.58;1.38;;;15.40;99.90;;;;;;5044294;28;20080;-66
2022/07/01 06:56:37;;;;;;;6.82;1.50;;;15.40;99.90;;;;;;5044722;28;20028;-69
2022/07/01 06:59:03;;;;;;;5.40;1.73;;;15.40;99.90;;;;;;5044590;28;20085;-66
2022/07/01 07:01:28;;;;;;;7.00;1.70;;;15.40;99.90;;;;;;5044594;28;20101;-67
2022/07/01 07:03:55;;;;;;;3.88;1.80;;;15.40;99.90;;;;;;5044600;28;20037;-67
2022/07/01 07:06:21;;;;;;;6.50;1.65;;;15.60;99.90;;;;;;5044494;28;20072;-66
2022/07/01 07:08:46;;;;;;;9.10;1.88;;;15.60;99.90;;;;;;5044560;28;20087;-66
2022/07/01 07:11:14;;;;;;;7.38;1.77;;;15.70;99.90;;;;;;5059431;28;20049;-68
2022/07/01 07:13:40;;;;;;;10.25;1.77;;;15.80;99.90;;;;;;5044134;28;20025;-67
2022/07/01 07:16:06;;;;;;;9.00;1.98;;;15.70;99.90;;;;;;5042936;28;20021;-69
2022/07/01 07:18:32;;;;;;;6.78;1.90;;;15.80;99.90;;;;;;5056050;28;20105;-67
2022/07/01 07:20:58;;;;;;;8.60;1.63;;;16.00;99.90;;;;;;5043435;28;20033;-67
2022/07/01 07:23:23;;;;;;;8.32;1.98;;;15.90;99.90;;;;;;5043821;28;20049;-66
2022/07/01 07:25:49;;;;;;;10.98;1.88;;;16.00;99.90;;;;;;5042741;28;20060;-68
2022/07/01 07:28:15;;;;;;;10.55;1.95;;;16.00;99.90;;;;;;5043676;28;20030;-67
2022/07/01 07:30:40;;;;;;;14.02;3.80;;;16.20;99.90;;;;;;5042770;28;20025;-68
2022/07/01 07:33:06;;;;;;;15.57;2.03;;;16.30;99.90;;;;;;5043641;28;20044;-67
2022/07/01 07:35:31;;;;;;;7.13;1.58;;;16.40;99.90;;;;;;5042774;28;20087;-68
2022/07/01 07:37:57;;;;;;;6.28;1.50;;;16.40;99.90;;;;;;5043743;28;20072;-67
2022/07/01 07:40:24;;;;;;;7.88;1.33;;;16.50;99.90;;;;;;5043811;28;20037;-67
2022/07/01 07:42:53;;;;;;;10.57;1.70;;;16.50;99.90;;;;;;5042257;28;20028;-68
2022/07/01 07:45:19;;;;;;;6.07;1.48;;;16.60;99.90;;;;;;5039115;28;20035;-68
2022/07/01 07:47:48;;;;;;;10.45;1.65;;;16.60;99.90;;;;;;5055426;28;20204;-67
2022/07/01 07:50:14;;;;;;;4.53;1.67;;;16.50;99.90;;;;;;5060075;28;20029;-66
2022/07/01 07:52:41;;;;;;;11.35;1.70;;;16.60;99.90;;;;;;5037889;28;20328;-68
2022/07/01 07:55:09;;;;;;;10.40;1.65;;;16.50;99.90;;;;;;5044261;28;20229;-67
2022/07/01 07:57:36;;;;;;;11.60;1.83;;;16.60;99.90;;;;;;5041926;28;20020;-67
2022/07/01 08:00:06;;;;;;;11.60;2.00;;;16.60;99.90;;;;;;5041735;28;20051;-67
2022/07/01 08:02:31;;;;;;;12.05;1.60;;;16.70;99.90;;;;;;5042064;28;20045;-68
2022/07/01 08:04:57;;;;;;;7.05;1.48;;;16.70;99.90;;;;;;5043280;28;20064;-68
2022/07/01 08:07:23;;;;;;;9.00;2.42;;;16.90;99.90;;;;;;5043605;28;20044;-68
2022/07/01 08:09:49;;;;;;;14.07;2.22;;;17.10;99.90;;;;;;5041893;28;20261;-67
2022/07/01 08:12:15;;;;;;;11.20;1.88;;;17.30;99.90;;;;;;5042578;28;20025;-67
2022/07/01 08:14:41;;;;;;;11.88;1.90;;;17.10;99.90;;;;;;5058273;28;20029;-67
2022/07/01 08:17:06;;;;;;;9.45;1.70;;;17.20;99.90;;;;;;5041332;28;20025;-68
2022/07/01 08:19:33;;;;;;;11.60;1.80;;;17.40;99.90;;;;;;5057169;28;20184;-66
2022/07/01 08:21:59;;;;;;;11.40;1.60;;;17.40;99.90;;;;;;5041953;28;20292;-67
2022/07/01 08:24:25;;;;;;;14.82;2.28;;;17.60;99.90;;;;;;5040743;28;20021;-66
2022/07/01 08:26:50;;;;;;;7.45;1.50;;;17.80;99.90;;;;;;5041845;28;20022;-69
2022/07/01 08:29:16;;;;;;;14.55;1.67;;;17.80;99.30;;;;;;5042821;28;20021;-68
2022/07/01 08:31:42;;;;;;;6.55;1.20;;;17.80;99.60;;;;;;5042151;28;20024;-65
2022/07/01 08:34:09;;;;;;;9.95;1.90;;;17.80;99.00;;;;;;5024432;28;20029;-66
2022/07/01 08:36:35;;;;;;;15.27;1.77;;;17.80;99.30;;;;;;5041624;28;20092;-67
2022/07/01 08:39:00;;;;;;;7.45;1.30;;;17.90;98.80;;;;;;5042120;28;20308;-67
2022/07/01 08:41:26;;;;;;;7.97;1.30;;;17.80;98.50;;;;;;5041643;28;20021;-67
2022/07/01 08:43:52;;;;;;;7.70;1.70;;;17.90;98.50;;;;;;5040951;28;20029;-67
2022/07/01 08:46:18;;;;;;;6.85;1.40;;;17.80;98.70;;;;;;5056944;28;20320;-66
2022/07/01 08:48:44;;;;;;;11.10;1.30;;;17.60;98.30;;;;;;5058055;28;20030;-67
2022/07/01 08:51:10;;;;;;;15.85;1.45;;;17.60;98.50;;;;;;5056074;28;20189;-66
2022/07/01 08:53:37;;;;;;;9.52;1.10;;;17.70;98.40;;;;;;5041386;28;20083;-69
2022/07/01 08:58:49;;;;;;;10.52;2.47;;;17.80;97.50;;;;;;5027447;28;20032;-68
2022/07/01 09:01:20;;;;;;;10.15;1.35;;;18.00;97.50;;;;;;5040357;28;20068;-66
2022/07/01 09:03:47;;;;;;;14.00;1.45;;;18.10;96.20;;;;;;5024361;28;20100;-66
2022/07/01 09:06:20;;;;;;;10.98;1.30;;;18.20;95.90;;;;;;5042341;28;20069;-68
2022/07/01 09:08:46;;;;;;;8.52;1.40;;;18.30;96.00;;;;;;5042404;28;20028;-66
2022/07/01 09:11:16;;;;;;;7.50;1.30;;;18.40;95.30;;;;;;5042065;28;20215;-65
2022/07/01 09:13:44;;;;;;;7.90;1.52;;;18.50;95.40;;;;;;5041953;28;20033;-67
2022/07/01 09:16:15;;;;;;;7.10;1.23;;;18.60;94.90;;;;;;5023916;28;20346;-65
2022/07/01 09:18:59;;;;;;;;;;;18.70;94.30;;;;;;5039842;28;20030;-68
2022/07/01 09:21:29;;;;;;;4.32;0.90;;;18.70;94.30;;;;;;5042009;28;19901;-67
2022/07/01 09:23:55;;;;;;;9.48;1.48;;;18.80;93.30;;;;;;5023380;28;20048;-66
2022/07/01 09:26:21;;;;;;;7.00;1.52;;;18.70;93.40;;;;;;5041155;28;20025;-70
2022/07/01 09:28:56;;;;;;;7.60;1.48;;;18.60;93.80;;;;;;5042019;28;20032;-68
2022/07/01 09:31:29;;;;;;;5.70;1.35;;;18.50;94.50;;;;;;5040546;28;20028;-69
2022/07/01 09:34:04;;;;;;;12.13;1.88;;;18.60;94.50;;;;;;5070443;28;20200;-66
2022/07/01 09:36:30;;;;;;;8.23;1.27;;;18.80;94.60;;;;;;5042090;28;20021;-69
2022/07/01 09:38:55;;;;;;;6.45;0.88;;;18.90;93.50;;;;;;5041575;28;20052;-67
2022/07/01 09:41:24;;;;;;;3.50;0.80;;;18.80;92.80;;;;;;5041748;28;20101;-67
2022/07/01 09:43:49;;;;;;;28.50;2.63;;;18.70;92.70;;;;;;5040907;28;20075;-68
2022/07/01 09:46:15;;;;;;;6.03;0.88;;;18.90;93.00;;;;;;5041314;28;20120;-68
2022/07/01 09:48:44;;;;;;;5.85;0.90;;;19.00;92.30;;;;;;5040760;28;20025;-67
2022/07/01 09:51:12;;;;;;;6.47;0.93;;;19.00;92.20;;;;;;5041155;28;20045;-67
2022/07/01 09:53:38;;;;;;;6.13;0.80;;;19.00;92.30;;;;;;5040880;28;20029;-65
2022/07/01 09:56:05;;;;;;;6.13;1.23;;;19.00;90.60;;;;;;5041369;28;20088;-67
2022/07/01 09:58:37;;;;;;;5.90;0.60;;;19.00;90.60;;;;;;5043051;28;20099;-67
2022/07/01 10:01:04;;;;;;;5.93;1.02;;;19.20;90.50;;;;;;5044960;28;20025;-66
2022/07/01 10:03:32;;;;;;;8.52;1.48;;;19.10;90.00;;;;;;5045540;28;20040;-68
2022/07/01 10:06:28;;;;;;;6.18;0.73;;;19.00;91.00;;;;;;5044775;28;20079;-65
2022/07/01 10:09:22;;;;;;;4.03;0.85;;;19.10;90.70;;;;;;5043573;28;20303;-67
2022/07/01 10:12:14;;;;;;;3.13;0.68;;;19.00;90.50;;;;;;5043852;28;20033;-69
2022/07/01 10:14:42;;;;;;;9.23;1.13;;;19.10;90.90;;;;;;5043451;28;20044;-68
2022/07/01 10:17:07;;;;;;;6.07;0.60;;;19.20;89.60;;;;;;5044970;28;20052;-68
2022/07/01 10:19:34;;;;;;;8.70;1.17;;;19.20;88.70;;;;;;5043307;28;20057;-66
2022/07/01 10:22:21;;;;;;;8.85;1.10;;;19.00;90.90;;;;;;5044668;28;20096;-69
2022/07/01 10:24:47;;;;;;;5.20;1.17;;;19.10;90.50;;;;;;5023837;28;20074;-65
2022/07/01 10:27:22;;;;;;;5.28;0.90;;;19.20;90.90;;;;;;5026774;28;20025;-68
2022/07/01 10:29:48;;;;;;;5.93;0.70;;;19.30;90.60;;;;;;5060282;28;20052;-68
2022/07/01 10:32:30;;;;;;;7.40;1.13;;;19.30;88.90;;;;;;5045078;28;20078;-67
2022/07/01 10:35:05;;;;;;;3.33;0.82;;;19.20;90.10;;;;;;5044722;28;20317;-67
2022/07/01 10:37:31;;;;;;;5.85;1.05;;;19.30;89.90;;;;;;5043258;28;20040;-66
2022/07/01 10:40:00;;;;;;;4.10;0.82;;;19.30;88.90;;;;;;5043865;28;20033;-68
2022/07/01 10:42:29;;;;;;;19.60;2.83;;;19.20;88.40;;;;;;5043846;28;20026;-69
2022/07/01 10:45:11;;;;;;;4.75;0.88;;;19.10;88.00;;;;;;5044372;28;20067;-67
2022/07/01 10:47:38;;;;;;;;;;;18.90;87.40;;;;;;5044431;28;20021;-68
2022/07/01 10:50:07;;;;;;;2.55;0.80;;;18.70;87.90;;;;;;5043751;28;20199;-67
2022/07/01 10:52:33;;;;;;;3.08;0.90;;;18.80;88.50;;;;;;5044549;28;20186;-67
2022/07/01 10:55:00;;;;;;;3.55;0.80;;;18.90;88.90;;;;;;5043805;28;20104;-69
2022/07/01 10:57:30;;;;;;;3.38;0.85;;;19.10;88.30;;;;;;5042521;28;20026;-68
2022/07/01 11:00:29;;;;;;;6.57;0.80;;;19.30;87.70;;;;;;5041526;28;20247;-67
2022/07/01 11:02:55;;;;;;;6.38;1.02;;;19.40;86.30;;;;;;5023468;28;20026;-68
2022/07/01 11:05:22;;;;;;;3.47;1.10;;;19.30;83.70;;;;;;5025070;28;20100;-65
2022/07/01 11:07:47;;;;;;;6.43;0.85;;;19.10;83.90;;;;;;5041448;28;20064;-70
2022/07/01 11:10:16;;;;;;;3.90;0.60;;;19.00;83.00;;;;;;5045344;28;20029;-66
2022/07/01 11:12:44;;;;;;;3.08;0.73;;;18.90;83.70;;;;;;5044157;28;20081;-67
2022/07/01 11:15:10;;;;;;;3.65;0.57;;;19.10;83.20;;;;;;5042302;28;20041;-65
2022/07/01 11:17:43;;;;;;;3.47;1.02;;;19.30;82.20;;;;;;5044390;28;20021;-68
2022/07/01 11:20:10;;;;;;;8.20;0.90;;;19.40;82.40;;;;;;5045739;28;20017;-67
2022/07/01 11:22:36;;;;;;;2.65;0.52;;;19.40;82.40;;;;;;5048623;28;20032;-67
2022/07/01 11:25:07;;;;;;;6.78;0.90;;;19.40;85.10;;;;;;5050979;28;20312;-66
2022/07/01 11:27:33;;;;;;;13.88;1.50;;;19.40;87.10;;;;;;5061097;28;20222;-66
2022/07/01 11:30:04;;;;;;;5.45;1.90;;;19.30;86.80;;;;;;5044327;28;20037;-71
2022/07/01 11:32:34;;;;;;;2.85;1.00;;;19.10;87.40;;;;;;5058974;28;20380;-69
2022/07/01 11:35:01;;;;;;;7.10;0.90;;;18.90;87.80;;;;;;5042358;28;20032;-68
2022/07/01 11:40:17;;;;;;;7.05;0.90;;;18.80;86.80;;;;;;5028879;28;20108;-69
2022/07/01 11:42:44;;;;;;;3.97;0.70;;;18.80;86.50;;;;;;5075516;28;20048;-67
2022/07/01 11:45:24;;;;;;;6.10;0.88;;;18.70;84.40;;;;;;5057962;28;20058;-67
2022/07/01 11:47:50;;;;;;;4.53;0.73;;;18.70;82.40;;;;;;5041885;28;20247;-69
2022/07/01 11:50:16;;;;;;;1.92;0.40;;;18.60;81.30;;;;;;5035749;28;20209;-68
2022/07/01 11:52:42;;;;;;;3.17;0.70;;;18.40;78.90;;;;;;5043875;28;20052;-67
2022/07/01 11:55:08;;;;;;;11.60;1.00;;;18.30;81.40;;;;;;5040636;28;20048;-68
2022/07/01 11:57:34;;;;;;;5.93;0.85;;;18.10;83.80;;;;;;5040437;28;20025;-68
2022/07/01 12:00:09;;;;;;;4.47;0.50;;;18.20;85.70;;;;;;5042095;28;20193;-67
2022/07/01 12:02:35;;;;;;;3.67;0.95;;;18.30;87.10;;;;;;5041618;28;20067;-69
2022/07/01 12:05:02;;;;;;;3.85;0.60;;;18.40;87.60;;;;;;5040034;28;20548;-68
2022/07/01 12:07:28;;;;;;;5.75;0.90;;;18.60;88.80;;;;;;5025011;28;20098;-67
2022/07/01 12:09:54;;;;;;;6.47;1.00;;;18.70;89.90;;;;;;5040215;28;20280;-67
2022/07/01 12:12:25;;;;;;;6.90;0.85;;;18.90;89.50;;;;;;5041075;28;20037;-66
2022/07/01 12:14:54;;;;;;;6.82;0.80;;;18.90;89.00;;;;;;5038746;28;20041;-67
2022/07/01 12:17:20;;;;;;;2.95;0.60;;;18.80;90.20;;;;;;5040540;28;20029;-67
2022/07/01 12:19:47;;;;;;;4.55;0.98;;;18.60;90.70;;;;;;5040364;28;20045;-68
2022/07/01 12:22:18;;;;;;;3.13;0.90;;;18.20;92.50;;;;;;5039521;28;20080;-69
2022/07/01 12:24:46;;;;;;;7.93;1.00;;;17.80;93.80;;;;;;5039027;28;20051;-67
2022/07/01 12:27:12;;;;;;;8.73;1.17;;;17.70;94.10;;;;;;5024827;28;20052;-67
2022/07/01 12:29:54;;;;;;;6.65;0.85;;;17.70;94.00;;;;;;5041386;28;20080;-66
2022/07/01 12:32:23;;;;;;;7.13;0.80;;;17.70;91.70;;;;;;5023450;28;20034;-69
2022/07/01 12:34:57;;;;;;;3.40;0.90;;;18.00;91.60;;;;;;5071709;28;20323;-68
2022/07/01 12:37:29;;;;;;;7.50;1.35;;;18.20;90.80;;;;;;5058454;28;20327;-68
2022/07/01 12:40:00;;;;;;;2.58;0.43;;;18.40;90.70;;;;;;5040934;28;20028;-68
2022/07/01 12:42:43;;;;;;;0.88;0.30;;;18.20;90.40;;;;;;5041904;28;20037;-68
2022/07/01 12:45:11;;;;;;;4.30;0.75;;;18.00;91.00;;;;;;5023915;28;20048;-68
2022/07/01 12:47:40;;;;;;;2.50;0.70;;;17.90;91.20;;;;;;5042210;28;20031;-67
2022/07/01 12:50:24;;;;;;;5.72;0.70;;;18.10;91.80;;;;;;5042598;28;20421;-66
2022/07/01 12:53:03;;;;;;;2.42;0.40;;;18.40;91.20;;;;;;5041322;28;20236;-66
2022/07/01 12:55:41;;;;;;;6.53;0.80;;;18.50;90.30;;;;;;5041095;28;20032;-67
2022/07/01 12:58:10;;;;;;;7.05;0.60;;;18.50;90.60;;;;;;5042003;28;20030;-67
2022/07/01 13:00:37;;;;;;;0.82;0.30;;;18.50;90.20;;;;;;5043392;28;20056;-68